sensor_id;sensor_type;location;lat;lon;timestamp;pressure;altitude;pressure_sealevel;temperature;humidity
19761;BME280;10039;42.632;23.408;2023-05-21T00:00:58;94847.00;;;15.68;71.66
19761;BME280;10039;42.632;23.408;2023-05-21T00:03:25;94816.44;;;15.35;71.96
19761;BME280;10039;42.632;23.408;2023-05-21T00:05:53;94857.13;;;15.55;72.33
19761;BME280;10039;42.632;23.408;2023-05-21T00:08:19;94844.72;;;15.18;73.29
19761;BME280;10039;42.632;23.408;2023-05-21T00:10:44;94841.22;;;15.30;73.00
19761;BME280;10039;42.632;23.408;2023-05-21T00:13:09;94840.97;;;15.37;72.81
19761;BME280;10039;42.632;23.408;2023-05-21T00:15:35;94830.16;;;15.28;73.19
19761;BME280;10039;42.632;23.408;2023-05-21T00:18:01;94842.28;;;15.32;73.02
19761;BME280;10039;42.632;23.408;2023-05-21T00:20:27;94842.53;;;15.25;72.92
19761;BME280;10039;42.632;23.408;2023-05-21T00:22:56;94842.56;;;14.95;74.69
19761;BME280;10039;42.632;23.408;2023-05-21T00:25:22;94846.16;;;15.01;74.21
19761;BME280;10039;42.632;23.408;2023-05-21T00:27:47;94835.69;;;14.94;74.35
19761;BME280;10039;42.632;23.408;2023-05-21T00:30:13;94822.41;;;14.99;73.97
19761;BME280;10039;42.632;23.408;2023-05-21T00:32:40;94812.81;;;14.89;74.28
19761;BME280;10039;42.632;23.408;2023-05-21T00:35:06;94833.56;;;14.89;74.62
19761;BME280;10039;42.632;23.408;2023-05-21T00:37:31;94833.31;;;14.96;74.91
19761;BME280;10039;42.632;23.408;2023-05-21T00:39:59;94833.88;;;14.91;74.92
19761;BME280;10039;42.632;23.408;2023-05-21T00:42:25;94821.72;;;14.77;74.78
19761;BME280;10039;42.632;23.408;2023-05-21T00:44:55;94835.69;;;14.94;74.39
19761;BME280;10039;42.632;23.408;2023-05-21T00:47:21;94830.34;;;15.03;74.49
19761;BME280;10039;42.632;23.408;2023-05-21T00:49:47;94824.25;;;15.11;74.00
19761;BME280;10039;42.632;23.408;2023-05-21T00:52:15;94826.22;;;15.20;73.57
19761;BME280;10039;42.632;23.408;2023-05-21T00:54:45;94828.34;;;15.25;73.04
19761;BME280;10039;42.632;23.408;2023-05-21T00:57:11;94821.22;;;15.31;72.89
19761;BME280;10039;42.632;23.408;2023-05-21T00:59:36;94826.63;;;15.40;72.68
19761;BME280;10039;42.632;23.408;2023-05-21T01:02:01;94810.75;;;15.33;72.67
19761;BME280;10039;42.632;23.408;2023-05-21T01:04:29;94824.66;;;15.40;72.62
19761;BME280;10039;42.632;23.408;2023-05-21T01:06:55;94817.34;;;15.32;72.85
19761;BME280;10039;42.632;23.408;2023-05-21T01:09:24;94819.59;;;15.42;72.62
19761;BME280;10039;42.632;23.408;2023-05-21T01:11:50;94821.25;;;15.49;72.42
19761;BME280;10039;42.632;23.408;2023-05-21T01:14:17;94801.38;;;15.46;72.17
19761;BME280;10039;42.632;23.408;2023-05-21T01:16:46;94817.69;;;15.61;72.05
19761;BME280;10039;42.632;23.408;2023-05-21T01:19:20;94812.91;;;15.65;71.60
19761;BME280;10039;42.632;23.408;2023-05-21T01:21:52;94805.28;;;15.54;71.29
19761;BME280;10039;42.632;23.408;2023-05-21T01:24:18;94818.88;;;15.51;71.86
19761;BME280;10039;42.632;23.408;2023-05-21T01:26:43;94821.84;;;15.53;72.09
19761;BME280;10039;42.632;23.408;2023-05-21T01:29:11;94816.00;;;15.36;72.54
19761;BME280;10039;42.632;23.408;2023-05-21T01:34:47;94803.72;;;15.35;72.54
19761;BME280;10039;42.632;23.408;2023-05-21T01:37:39;94796.44;;;15.36;72.71
19761;BME280;10039;42.632;23.408;2023-05-21T01:40:14;94811.69;;;15.48;72.87
19761;BME280;10039;42.632;23.408;2023-05-21T01:42:43;94796.56;;;15.32;72.43
19761;BME280;10039;42.632;23.408;2023-05-21T01:45:10;94814.25;;;15.51;72.24
19761;BME280;10039;42.632;23.408;2023-05-21T01:47:39;94811.09;;;15.44;72.94
19761;BME280;10039;42.632;23.408;2023-05-21T01:50:06;94805.09;;;15.40;73.02
19761;BME280;10039;42.632;23.408;2023-05-21T01:52:33;94803.59;;;15.30;72.94
19761;BME280;10039;42.632;23.408;2023-05-21T01:54:58;94792.25;;;15.04;73.80
19761;BME280;10039;42.632;23.408;2023-05-21T01:57:24;94811.84;;;15.14;74.00
19761;BME280;10039;42.632;23.408;2023-05-21T01:59:51;94803.16;;;15.01;74.21
19761;BME280;10039;42.632;23.408;2023-05-21T02:02:17;94811.44;;;14.85;75.30
19761;BME280;10039;42.632;23.408;2023-05-21T02:04:43;94805.75;;;14.83;75.38
19761;BME280;10039;42.632;23.408;2023-05-21T02:07:10;94809.38;;;14.89;74.89
19761;BME280;10039;42.632;23.408;2023-05-21T02:09:38;94803.69;;;14.87;74.84
19761;BME280;10039;42.632;23.408;2023-05-21T02:12:04;94800.69;;;14.85;74.82
19761;BME280;10039;42.632;23.408;2023-05-21T02:14:30;94770.66;;;14.77;74.92
19761;BME280;10039;42.632;23.408;2023-05-21T02:16:58;94781.19;;;14.93;74.19
19761;BME280;10039;42.632;23.408;2023-05-21T02:19:23;94793.88;;;14.93;74.13
19761;BME280;10039;42.632;23.408;2023-05-21T02:21:49;94785.81;;;14.93;73.69
19761;BME280;10039;42.632;23.408;2023-05-21T02:24:14;94790.59;;;14.98;73.71
19761;BME280;10039;42.632;23.408;2023-05-21T02:26:40;94752.75;;;14.74;73.32
19761;BME280;10039;42.632;23.408;2023-05-21T02:29:06;94790.94;;;15.09;72.96
19761;BME280;10039;42.632;23.408;2023-05-21T02:31:31;94789.88;;;15.06;73.11
19761;BME280;10039;42.632;23.408;2023-05-21T02:33:57;94779.28;;;15.03;72.75
19761;BME280;10039;42.632;23.408;2023-05-21T02:36:22;94780.78;;;15.04;72.70
19761;BME280;10039;42.632;23.408;2023-05-21T02:38:49;94787.66;;;15.05;72.51
19761;BME280;10039;42.632;23.408;2023-05-21T02:41:14;94791.53;;;15.04;72.26
19761;BME280;10039;42.632;23.408;2023-05-21T02:43:40;94775.09;;;15.02;72.23
19761;BME280;10039;42.632;23.408;2023-05-21T02:46:06;94789.88;;;15.06;72.22
19761;BME280;10039;42.632;23.408;2023-05-21T02:48:31;94787.66;;;15.05;72.26
19761;BME280;10039;42.632;23.408;2023-05-21T02:50:58;94781.81;;;14.97;72.45
19761;BME280;10039;42.632;23.408;2023-05-21T02:53:23;94784.34;;;15.01;72.14
19761;BME280;10039;42.632;23.408;2023-05-21T02:55:49;94785.19;;;14.89;72.39
19761;BME280;10039;42.632;23.408;2023-05-21T02:58:15;94768.75;;;14.78;72.87
19761;BME280;10039;42.632;23.408;2023-05-21T03:00:40;94780.56;;;14.89;73.05
19761;BME280;10039;42.632;23.408;2023-05-21T03:03:06;94778.88;;;14.83;73.04
19761;BME280;10039;42.632;23.408;2023-05-21T03:05:31;94780.06;;;14.82;73.26
19761;BME280;10039;42.632;23.408;2023-05-21T03:07:56;94782.47;;;14.80;73.25
19761;BME280;10039;42.632;23.408;2023-05-21T03:10:22;94780.22;;;14.78;73.36
19761;BME280;10039;42.632;23.408;2023-05-21T03:12:47;94776.44;;;14.67;73.42
19761;BME280;10039;42.632;23.408;2023-05-21T03:15:13;94782.44;;;14.71;73.88
19761;BME280;10039;42.632;23.408;2023-05-21T03:17:39;94786.88;;;14.65;73.97
19761;BME280;10039;42.632;23.408;2023-05-21T03:20:07;94773.06;;;14.45;74.33
19761;BME280;10039;42.632;23.408;2023-05-21T03:22:33;94778.16;;;14.52;74.42
19761;BME280;10039;42.632;23.408;2023-05-21T03:24:59;94787.53;;;14.48;74.68
19761;BME280;10039;42.632;23.408;2023-05-21T03:27:26;94784.00;;;14.29;75.55
19761;BME280;10039;42.632;23.408;2023-05-21T03:29:51;94758.94;;;14.11;75.82
19761;BME280;10039;42.632;23.408;2023-05-21T03:32:19;94750.97;;;14.20;75.13
19761;BME280;10039;42.632;23.408;2023-05-21T03:34:45;94794.63;;;14.63;74.60
19761;BME280;10039;42.632;23.408;2023-05-21T03:37:11;94798.25;;;14.69;73.93
19761;BME280;10039;42.632;23.408;2023-05-21T03:39:36;94752.19;;;14.49;73.85
19761;BME280;10039;42.632;23.408;2023-05-21T03:42:02;94790.97;;;14.78;73.74
19761;BME280;10039;42.632;23.408;2023-05-21T03:44:27;94793.19;;;14.71;74.34
19761;BME280;10039;42.632;23.408;2023-05-21T03:46:56;94799.03;;;14.78;73.83
19761;BME280;10039;42.632;23.408;2023-05-21T03:49:22;94797.84;;;14.79;74.11
19761;BME280;10039;42.632;23.408;2023-05-21T03:51:47;94792.94;;;14.87;74.08
19761;BME280;10039;42.632;23.408;2023-05-21T03:54:13;94788.34;;;14.87;73.42
19761;BME280;10039;42.632;23.408;2023-05-21T03:56:38;94787.84;;;14.80;73.88
19761;BME280;10039;42.632;23.408;2023-05-21T03:59:03;94790.34;;;14.74;74.22
19761;BME280;10039;42.632;23.408;2023-05-21T04:01:29;94795.88;;;14.71;74.49
19761;BME280;10039;42.632;23.408;2023-05-21T04:03:54;94791.22;;;14.71;74.70
19761;BME280;10039;42.632;23.408;2023-05-21T04:06:20;94799.34;;;14.80;74.35
19761;BME280;10039;42.632;23.408;2023-05-21T04:08:45;94785.75;;;14.84;73.58
19761;BME280;10039;42.632;23.408;2023-05-21T04:11:12;94795.00;;;14.74;73.94
19761;BME280;10039;42.632;23.408;2023-05-21T04:13:37;94793.81;;;14.84;73.54
19761;BME280;10039;42.632;23.408;2023-05-21T04:16:03;94787.56;;;14.78;73.95
19761;BME280;10039;42.632;23.408;2023-05-21T04:18:28;94795.00;;;14.74;74.09
19761;BME280;10039;42.632;23.408;2023-05-21T04:20:54;94783.84;;;14.84;74.28
19761;BME280;10039;42.632;23.408;2023-05-21T04:23:19;94786.88;;;14.95;73.35
19761;BME280;10039;42.632;23.408;2023-05-21T04:25:47;94791.75;;;14.88;73.75
19761;BME280;10039;42.632;23.408;2023-05-21T04:28:14;94786.72;;;14.99;73.82
19761;BME280;10039;42.632;23.408;2023-05-21T04:30:44;94791.44;;;14.86;74.59
19761;BME280;10039;42.632;23.408;2023-05-21T04:33:10;94776.75;;;14.69;74.77
19761;BME280;10039;42.632;23.408;2023-05-21T04:35:35;94793.41;;;14.85;74.57
19761;BME280;10039;42.632;23.408;2023-05-21T04:38:00;94786.38;;;14.88;75.03
19761;BME280;10039;42.632;23.408;2023-05-21T04:40:26;94770.50;;;14.72;74.68
19761;BME280;10039;42.632;23.408;2023-05-21T04:42:51;94785.81;;;14.93;74.64
19761;BME280;10039;42.632;23.408;2023-05-21T04:45:17;94757.13;;;14.81;74.21
19761;BME280;10039;42.632;23.408;2023-05-21T04:47:42;94793.03;;;15.14;73.82
19761;BME280;10039;42.632;23.408;2023-05-21T04:50:08;94779.03;;;14.79;74.65
19761;BME280;10039;42.632;23.408;2023-05-21T04:52:38;94798.66;;;14.98;75.09
19761;BME280;10039;42.632;23.408;2023-05-21T04:55:05;94795.41;;;15.03;74.49
19761;BME280;10039;42.632;23.408;2023-05-21T04:57:31;94785.28;;;15.16;74.53
19761;BME280;10039;42.632;23.408;2023-05-21T04:59:57;94794.00;;;15.29;73.61
19761;BME280;10039;42.632;23.408;2023-05-21T05:02:22;94788.09;;;15.43;72.88
19761;BME280;10039;42.632;23.408;2023-05-21T05:04:48;94776.13;;;15.53;72.67
19761;BME280;10039;42.632;23.408;2023-05-21T05:07:13;94796.00;;;15.64;72.64
19761;BME280;10039;42.632;23.408;2023-05-21T05:09:39;94778.53;;;15.60;71.60
19761;BME280;10039;42.632;23.408;2023-05-21T05:12:05;94785.41;;;15.78;71.73
19761;BME280;10039;42.632;23.408;2023-05-21T05:14:30;94787.06;;;15.94;71.94
19761;BME280;10039;42.632;23.408;2023-05-21T05:16:56;94767.66;;;15.90;71.91
19761;BME280;10039;42.632;23.408;2023-05-21T05:19:27;94751.63;;;15.86;71.32
19761;BME280;10039;42.632;23.408;2023-05-21T05:21:53;94786.47;;;16.08;71.89
19761;BME280;10039;42.632;23.408;2023-05-21T05:24:18;94787.94;;;16.27;70.93
19761;BME280;10039;42.632;23.408;2023-05-21T05:26:44;94793.78;;;16.43;70.53
19761;BME280;10039;42.632;23.408;2023-05-21T05:29:09;94788.97;;;16.56;70.20
19761;BME280;10039;42.632;23.408;2023-05-21T05:31:34;94775.50;;;16.56;69.44
19761;BME280;10039;42.632;23.408;2023-05-21T05:34:00;94752.75;;;16.57;69.25
19761;BME280;10039;42.632;23.408;2023-05-21T05:36:25;94788.75;;;16.78;68.53
19761;BME280;10039;42.632;23.408;2023-05-21T05:38:51;94787.38;;;16.91;67.98
19761;BME280;10039;42.632;23.408;2023-05-21T05:41:16;94793.59;;;17.06;67.78
19761;BME280;10039;42.632;23.408;2023-05-21T05:43:45;94788.63;;;17.13;67.28
19761;BME280;10039;42.632;23.408;2023-05-21T05:46:11;94791.72;;;17.21;66.97
19761;BME280;10039;42.632;23.408;2023-05-21T05:48:36;94776.56;;;17.32;67.02
19761;BME280;10039;42.632;23.408;2023-05-21T05:51:02;94778.44;;;17.41;66.01
19761;BME280;10039;42.632;23.408;2023-05-21T05:53:27;94770.69;;;17.57;66.09
19761;BME280;10039;42.632;23.408;2023-05-21T05:55:53;94778.31;;;17.68;64.95
19761;BME280;10039;42.632;23.408;2023-05-21T05:58:19;94784.78;;;17.85;63.72
19761;BME280;10039;42.632;23.408;2023-05-21T06:00:47;94748.88;;;17.70;63.77
19761;BME280;10039;42.632;23.408;2023-05-21T06:03:13;94781.19;;;18.02;63.53
19761;BME280;10039;42.632;23.408;2023-05-21T06:05:38;94787.16;;;18.06;63.96
19761;BME280;10039;42.632;23.408;2023-05-21T06:08:04;94777.38;;;18.08;62.70
19761;BME280;10039;42.632;23.408;2023-05-21T06:10:29;94781.22;;;18.16;62.89
19761;BME280;10039;42.632;23.408;2023-05-21T06:12:55;94772.66;;;18.32;62.92
19761;BME280;10039;42.632;23.408;2023-05-21T06:15:20;94743.38;;;18.16;61.83
19761;BME280;10039;42.632;23.408;2023-05-21T06:17:45;94739.50;;;18.32;61.32
19761;BME280;10039;42.632;23.408;2023-05-21T06:20:11;94764.50;;;18.56;62.45
19761;BME280;10039;42.632;23.408;2023-05-21T06:22:37;94744.84;;;18.55;61.83
19761;BME280;10039;42.632;23.408;2023-05-21T06:25:03;94741.38;;;18.55;60.91
19761;BME280;10039;42.632;23.408;2023-05-21T06:27:29;94772.84;;;18.87;60.76
19761;BME280;10039;42.632;23.408;2023-05-21T06:29:55;94755.53;;;18.79;59.88
19761;BME280;10039;42.632;23.408;2023-05-21T06:32:21;94766.50;;;18.90;60.69
19761;BME280;10039;42.632;23.408;2023-05-21T06:34:47;94770.06;;;18.96;59.95
19761;BME280;10039;42.632;23.408;2023-05-21T06:37:12;94738.28;;;18.76;60.52
19761;BME280;10039;42.632;23.408;2023-05-21T06:39:38;94757.94;;;18.91;60.69
19761;BME280;10039;42.632;23.408;2023-05-21T06:42:04;94733.78;;;18.88;60.81
19761;BME280;10039;42.632;23.408;2023-05-21T06:44:30;94732.16;;;19.10;60.71
19761;BME280;10039;42.632;23.408;2023-05-21T06:46:55;94727.88;;;19.04;59.65
19761;BME280;10039;42.632;23.408;2023-05-21T06:49:21;94752.44;;;19.34;60.62
19761;BME280;10039;42.632;23.408;2023-05-21T06:51:46;94729.91;;;19.43;59.36
19761;BME280;10039;42.632;23.408;2023-05-21T06:54:11;94758.63;;;19.75;59.46
19761;BME280;10039;42.632;23.408;2023-05-21T06:56:37;94723.50;;;19.60;58.79
19761;BME280;10039;42.632;23.408;2023-05-21T06:59:02;94755.88;;;19.69;58.00
19761;BME280;10039;42.632;23.408;2023-05-21T07:01:28;94746.97;;;19.89;57.74
19761;BME280;10039;42.632;23.408;2023-05-21T07:03:53;94734.66;;;19.88;54.62
19761;BME280;10039;42.632;23.408;2023-05-21T07:06:18;94748.72;;;19.92;55.50
19761;BME280;10039;42.632;23.408;2023-05-21T07:08:44;94738.44;;;20.16;55.50
19761;BME280;10039;42.632;23.408;2023-05-21T07:11:10;94740.13;;;20.38;55.06
19761;BME280;10039;42.632;23.408;2023-05-21T07:13:35;94735.34;;;20.53;54.99
19761;BME280;10039;42.632;23.408;2023-05-21T07:16:01;94715.03;;;20.43;53.72
19761;BME280;10039;42.632;23.408;2023-05-21T07:18:26;94725.97;;;20.80;54.60
19761;BME280;10039;42.632;23.408;2023-05-21T07:20:52;94746.81;;;20.68;52.19
19761;BME280;10039;42.632;23.408;2023-05-21T07:23:17;94741.94;;;20.78;53.50
19761;BME280;10039;42.632;23.408;2023-05-21T07:25:43;94745.59;;;21.00;53.06
19761;BME280;10039;42.632;23.408;2023-05-21T07:28:08;94738.69;;;20.99;53.44
19761;BME280;10039;42.632;23.408;2023-05-21T07:30:34;94743.53;;;21.21;53.90
19761;BME280;10039;42.632;23.408;2023-05-21T07:32:59;94711.69;;;21.21;53.33
19761;BME280;10039;42.632;23.408;2023-05-21T07:35:24;94740.19;;;21.42;51.35
19761;BME280;10039;42.632;23.408;2023-05-21T07:37:50;94751.91;;;21.59;51.69
19761;BME280;10039;42.632;23.408;2023-05-21T07:40:15;94736.78;;;21.52;50.53
19761;BME280;10039;42.632;23.408;2023-05-21T07:42:41;94742.25;;;21.58;51.18
19761;BME280;10039;42.632;23.408;2023-05-21T07:45:06;94749.78;;;21.74;50.26
19761;BME280;10039;42.632;23.408;2023-05-21T07:47:32;94729.22;;;21.62;49.99
19761;BME280;10039;42.632;23.408;2023-05-21T07:49:57;94745.31;;;21.76;49.34
19761;BME280;10039;42.632;23.408;2023-05-21T07:52:23;94712.91;;;21.62;48.73
19761;BME280;10039;42.632;23.408;2023-05-21T07:54:48;94744.00;;;22.19;48.27
19761;BME280;10039;42.632;23.408;2023-05-21T07:57:14;94734.88;;;22.33;47.34
19761;BME280;10039;42.632;23.408;2023-05-21T07:59:39;94740.06;;;22.26;47.09
19761;BME280;10039;42.632;23.408;2023-05-21T08:02:05;94745.75;;;22.22;45.98
19761;BME280;10039;42.632;23.408;2023-05-21T08:04:30;94732.63;;;22.15;45.13
19761;BME280;10039;42.632;23.408;2023-05-21T08:06:55;94745.00;;;22.27;44.07
19761;BME280;10039;42.632;23.408;2023-05-21T08:09:21;94716.59;;;22.34;44.40
19761;BME280;10039;42.632;23.408;2023-05-21T08:11:47;94724.06;;;22.71;43.72
19761;BME280;10039;42.632;23.408;2023-05-21T08:14:12;94727.03;;;22.63;42.70
19761;BME280;10039;42.632;23.408;2023-05-21T08:16:38;94729.47;;;22.39;42.53
19761;BME280;10039;42.632;23.408;2023-05-21T08:19:03;94741.06;;;22.28;43.34
19761;BME280;10039;42.632;23.408;2023-05-21T08:21:28;94734.81;;;22.11;43.20
19761;BME280;10039;42.632;23.408;2023-05-21T08:23:54;94743.97;;;22.08;42.96
19761;BME280;10039;42.632;23.408;2023-05-21T08:26:20;94733.84;;;22.20;43.54
19761;BME280;10039;42.632;23.408;2023-05-21T08:28:45;94730.72;;;22.38;43.24
19761;BME280;10039;42.632;23.408;2023-05-21T08:31:11;94735.81;;;22.08;42.13
19761;BME280;10039;42.632;23.408;2023-05-21T08:33:37;94731.84;;;22.09;42.72
19761;BME280;10039;42.632;23.408;2023-05-21T08:36:04;94740.94;;;21.90;44.18
19761;BME280;10039;42.632;23.408;2023-05-21T08:38:30;94731.72;;;21.71;44.47
19761;BME280;10039;42.632;23.408;2023-05-21T08:40:55;94735.50;;;21.90;43.34
19761;BME280;10039;42.632;23.408;2023-05-21T08:43:22;94729.47;;;21.69;44.21
19761;BME280;10039;42.632;23.408;2023-05-21T08:45:52;94742.88;;;21.84;44.50
19761;BME280;10039;42.632;23.408;2023-05-21T08:48:21;94738.25;;;21.95;45.15
19761;BME280;10039;42.632;23.408;2023-05-21T08:50:49;94732.09;;;22.17;44.95
19761;BME280;10039;42.632;23.408;2023-05-21T08:53:15;94722.31;;;22.41;42.93
19761;BME280;10039;42.632;23.408;2023-05-21T08:55:41;94722.81;;;22.62;44.03
19761;BME280;10039;42.632;23.408;2023-05-21T08:58:08;94725.53;;;22.40;43.65
19761;BME280;10039;42.632;23.408;2023-05-21T09:00:34;94724.78;;;22.56;44.24
19761;BME280;10039;42.632;23.408;2023-05-21T09:03:00;94728.53;;;22.74;43.30
19761;BME280;10039;42.632;23.408;2023-05-21T09:05:27;94724.06;;;22.82;40.72
19761;BME280;10039;42.632;23.408;2023-05-21T09:10:35;94731.97;;;22.91;40.64
19761;BME280;10039;42.632;23.408;2023-05-21T09:13:03;94740.16;;;22.91;41.78
19761;BME280;10039;42.632;23.408;2023-05-21T09:15:29;94745.09;;;22.93;41.32
19761;BME280;10039;42.632;23.408;2023-05-21T09:17:54;94741.41;;;23.18;40.31
19761;BME280;10039;42.632;23.408;2023-05-21T09:20:24;94742.38;;;23.04;40.30
19761;BME280;10039;42.632;23.408;2023-05-21T09:22:51;94743.13;;;23.10;39.62
19761;BME280;10039;42.632;23.408;2023-05-21T09:25:23;94738.16;;;23.03;39.56
19761;BME280;10039;42.632;23.408;2023-05-21T09:27:52;94738.91;;;23.14;38.47
19761;BME280;10039;42.632;23.408;2023-05-21T09:30:19;94736.94;;;23.15;38.52
19761;BME280;10039;42.632;23.408;2023-05-21T09:32:44;94734.22;;;23.09;39.29
19761;BME280;10039;42.632;23.408;2023-05-21T09:35:27;94726.28;;;23.11;40.02
19761;BME280;10039;42.632;23.408;2023-05-21T09:37:53;94733.47;;;23.14;39.26
19761;BME280;10039;42.632;23.408;2023-05-21T09:40:20;94726.50;;;23.35;39.65
19761;BME280;10039;42.632;23.408;2023-05-21T09:42:51;94724.72;;;23.54;38.77
19761;BME280;10039;42.632;23.408;2023-05-21T09:45:22;94724.22;;;23.56;38.98
19761;BME280;10039;42.632;23.408;2023-05-21T09:47:48;94730.00;;;24.03;39.56
19761;BME280;10039;42.632;23.408;2023-05-21T09:52:45;94723.94;;;23.70;36.28
19761;BME280;10039;42.632;23.408;2023-05-21T09:55:11;94688.81;;;23.50;36.84
19761;BME280;10039;42.632;23.408;2023-05-21T09:57:44;94724.19;;;23.72;36.61
19761;BME280;10039;42.632;23.408;2023-05-21T10:00:21;94708.78;;;23.75;37.23
19761;BME280;10039;42.632;23.408;2023-05-21T10:02:57;94713.03;;;23.70;37.14
19761;BME280;10039;42.632;23.408;2023-05-21T10:05:28;94703.22;;;24.07;37.23
19761;BME280;10039;42.632;23.408;2023-05-21T10:08:02;94719.25;;;24.22;36.89
19761;BME280;10039;42.632;23.408;2023-05-21T10:10:30;94713.84;;;24.11;35.68
19761;BME280;10039;42.632;23.408;2023-05-21T10:13:05;94708.28;;;23.82;36.09
19761;BME280;10039;42.632;23.408;2023-05-21T10:15:43;94713.59;;;24.14;37.29
19761;BME280;10039;42.632;23.408;2023-05-21T10:18:09;94696.25;;;24.06;35.29
19761;BME280;10039;42.632;23.408;2023-05-21T10:20:36;94708.47;;;24.00;35.32
19761;BME280;10039;42.632;23.408;2023-05-21T10:23:02;94697.63;;;23.78;36.82
19761;BME280;10039;42.632;23.408;2023-05-21T10:25:29;94705.09;;;23.72;37.54
19761;BME280;10039;42.632;23.408;2023-05-21T10:27:55;94697.13;;;23.74;39.58
19761;BME280;10039;42.632;23.408;2023-05-21T10:30:22;94694.63;;;23.76;37.08
19761;BME280;10039;42.632;23.408;2023-05-21T10:32:48;94699.88;;;23.80;38.36
19761;BME280;10039;42.632;23.408;2023-05-21T10:35:15;94691.44;;;23.78;37.77
19761;BME280;10039;42.632;23.408;2023-05-21T10:37:43;94660.06;;;23.49;37.57
19761;BME280;10039;42.632;23.408;2023-05-21T10:40:09;94694.22;;;23.61;38.09
19761;BME280;10039;42.632;23.408;2023-05-21T10:45:18;94692.16;;;23.89;37.85
19761;BME280;10039;42.632;23.408;2023-05-21T10:48:21;94693.41;;;23.77;38.25
19761;BME280;10039;42.632;23.408;2023-05-21T10:56:38;94685.53;;;23.68;40.09
19761;BME280;10039;42.632;23.408;2023-05-21T11:01:49;94685.34;;;24.06;39.42
19761;BME280;10039;42.632;23.408;2023-05-21T11:04:27;94683.81;;;24.16;39.04
19761;BME280;10039;42.632;23.408;2023-05-21T11:06:52;94683.72;;;24.27;37.98
19761;BME280;10039;42.632;23.408;2023-05-21T11:09:18;94666.75;;;23.54;37.92
19761;BME280;10039;42.632;23.408;2023-05-21T11:11:51;94679.53;;;23.75;39.29
19761;BME280;10039;42.632;23.408;2023-05-21T11:14:37;94674.00;;;23.97;39.07
19761;BME280;10039;42.632;23.408;2023-05-21T11:17:11;94650.09;;;23.68;37.72
19761;BME280;10039;42.632;23.408;2023-05-21T11:19:44;94651.25;;;23.89;38.33
19761;BME280;10039;42.632;23.408;2023-05-21T11:22:25;94663.78;;;24.08;39.20
19761;BME280;10039;42.632;23.408;2023-05-21T11:24:53;94656.50;;;24.22;38.42
19761;BME280;10039;42.632;23.408;2023-05-21T11:27:51;94653.34;;;24.12;38.02
19761;BME280;10039;42.632;23.408;2023-05-21T11:30:18;94658.75;;;24.18;38.91
19761;BME280;10039;42.632;23.408;2023-05-21T11:35:37;94659.47;;;23.73;39.02
19761;BME280;10039;42.632;23.408;2023-05-21T11:38:03;94653.50;;;23.85;40.15
19761;BME280;10039;42.632;23.408;2023-05-21T11:40:34;94659.19;;;23.87;38.78
19761;BME280;10039;42.632;23.408;2023-05-21T11:42:59;94664.88;;;23.89;38.38
19761;BME280;10039;42.632;23.408;2023-05-21T11:45:30;94656.63;;;23.43;38.61
19761;BME280;10039;42.632;23.408;2023-05-21T11:47:56;94655.78;;;23.65;39.52
19761;BME280;10039;42.632;23.408;2023-05-21T11:50:22;94656.16;;;23.39;38.75
19761;BME280;10039;42.632;23.408;2023-05-21T11:52:48;94656.44;;;23.19;39.17
19761;BME280;10039;42.632;23.408;2023-05-21T11:55:14;94660.16;;;23.27;39.59
19761;BME280;10039;42.632;23.408;2023-05-21T11:57:41;94654.88;;;23.46;40.54
19761;BME280;10039;42.632;23.408;2023-05-21T12:00:14;94657.66;;;23.40;39.24
19761;BME280;10039;42.632;23.408;2023-05-21T12:02:45;94643.31;;;23.23;40.47
19761;BME280;10039;42.632;23.408;2023-05-21T12:05:11;94652.00;;;23.22;40.33
19761;BME280;10039;42.632;23.408;2023-05-21T12:07:36;94635.94;;;22.96;40.01
19761;BME280;10039;42.632;23.408;2023-05-21T12:10:02;94610.75;;;22.68;40.91
19761;BME280;10039;42.632;23.408;2023-05-21T12:12:30;94644.16;;;22.74;41.70
19761;BME280;10039;42.632;23.408;2023-05-21T12:14:57;94620.66;;;22.71;41.04
19761;BME280;10039;42.632;23.408;2023-05-21T12:17:24;94626.09;;;22.71;41.37
19761;BME280;10039;42.632;23.408;2023-05-21T12:19:53;94631.03;;;22.67;41.74
19761;BME280;10039;42.632;23.408;2023-05-21T12:22:19;94604.81;;;22.54;41.72
19761;BME280;10039;42.632;23.408;2023-05-21T12:24:44;94634.00;;;22.59;42.03
19761;BME280;10039;42.632;23.408;2023-05-21T12:27:11;94634.72;;;22.32;42.70
19761;BME280;10039;42.632;23.408;2023-05-21T12:29:41;94613.91;;;21.85;44.44
19761;BME280;10039;42.632;23.408;2023-05-21T12:32:12;94629.03;;;22.08;44.55
19761;BME280;10039;42.632;23.408;2023-05-21T12:37:23;94635.47;;;22.27;44.89
19761;BME280;10039;42.632;23.408;2023-05-21T12:39:51;94632.75;;;22.21;45.35
19761;BME280;10039;42.632;23.408;2023-05-21T12:42:31;94622.09;;;22.01;45.90
19761;BME280;10039;42.632;23.408;2023-05-21T12:45:03;94632.72;;;21.94;45.78
19761;BME280;10039;42.632;23.408;2023-05-21T12:47:30;94613.44;;;21.86;47.07
19761;BME280;10039;42.632;23.408;2023-05-21T12:49:57;94627.53;;;22.18;45.78
19761;BME280;10039;42.632;23.408;2023-05-21T12:52:23;94620.38;;;22.04;45.62
19761;BME280;10039;42.632;23.408;2023-05-21T12:54:50;94623.59;;;22.13;45.73
19761;BME280;10039;42.632;23.408;2023-05-21T12:57:24;94624.59;;;22.27;46.00
19761;BME280;10039;42.632;23.408;2023-05-21T12:59:57;94621.16;;;22.43;46.07
19761;BME280;10039;42.632;23.408;2023-05-21T13:02:25;94617.47;;;22.46;45.99
19761;BME280;10039;42.632;23.408;2023-05-21T13:04:59;94618.94;;;22.52;44.99
19761;BME280;10039;42.632;23.408;2023-05-21T13:07:26;94617.19;;;22.55;46.12
19761;BME280;10039;42.632;23.408;2023-05-21T13:09:53;94607.78;;;22.56;46.02
19761;BME280;10039;42.632;23.408;2023-05-21T13:12:23;94606.31;;;22.55;44.53
19761;BME280;10039;42.632;23.408;2023-05-21T13:14:49;94615.72;;;22.54;44.03